sensor_id;sensor_type;location;lat;lon;timestamp;P1;durP1;ratioP1;P2;durP2;ratioP2
4517;SDS011;2271;49.464;11.070;2022-08-18T00:02:02;6.15;;;3.92;;
4517;SDS011;2271;49.464;11.070;2022-08-18T00:04:33;6.80;;;3.92;;
4517;SDS011;2271;49.464;11.070;2022-08-18T00:07:05;3.58;;;3.15;;
4517;SDS011;2271;49.464;11.070;2022-08-18T00:09:33;4.05;;;3.53;;
4517;SDS011;2271;49.464;11.070;2022-08-18T00:12:02;7.82;;;3.40;;
4517;SDS011;2271;49.464;11.070;2022-08-18T00:14:30;4.50;;;3.28;;
4517;SDS011;2271;49.464;11.070;2022-08-18T00:16:56;5.03;;;2.50;;
4517;SDS011;2271;49.464;11.070;2022-08-18T00:19:22;3.40;;;2.72;;
4517;SDS011;2271;49.464;11.070;2022-08-18T00:21:48;9.35;;;3.17;;
4517;SDS011;2271;49.464;11.070;2022-08-18T00:24:14;4.93;;;2.85;;
4517;SDS011;2271;49.464;11.070;2022-08-18T00:26:39;8.05;;;3.30;;
4517;SDS011;2271;49.464;11.070;2022-08-18T00:29:05;5.45;;;3.00;;
4517;SDS011;2271;49.464;11.070;2022-08-18T00:31:31;5.05;;;2.53;;
4517;SDS011;2271;49.464;11.070;2022-08-18T00:33:57;6.95;;;3.10;;
4517;SDS011;2271;49.464;11.070;2022-08-18T00:36:23;5.60;;;3.08;;
4517;SDS011;2271;49.464;11.070;2022-08-18T00:38:49;5.78;;;3.03;;
4517;SDS011;2271;49.464;11.070;2022-08-18T00:41:15;8.75;;;2.90;;
4517;SDS011;2271;49.464;11.070;2022-08-18T00:43:46;3.03;;;2.70;;
4517;SDS011;2271;49.464;11.070;2022-08-18T00:46:16;4.78;;;2.47;;
4517;SDS011;2271;49.464;11.070;2022-08-18T00:48:44;4.88;;;3.47;;
4517;SDS011;2271;49.464;11.070;2022-08-18T00:51:12;3.25;;;2.75;;
4517;SDS011;2271;49.464;11.070;2022-08-18T00:53:44;4.70;;;3.03;;
4517;SDS011;2271;49.464;11.070;2022-08-18T00:56:18;7.00;;;2.35;;
4517;SDS011;2271;49.464;11.070;2022-08-18T00:58:50;3.20;;;2.63;;
4517;SDS011;2271;49.464;11.070;2022-08-18T01:01:20;9.30;;;3.30;;
4517;SDS011;2271;49.464;11.070;2022-08-18T01:03:49;3.30;;;3.00;;
4517;SDS011;2271;49.464;11.070;2022-08-18T01:06:24;3.40;;;3.10;;
4517;SDS011;2271;49.464;11.070;2022-08-18T01:08:56;5.05;;;2.90;;
4517;SDS011;2271;49.464;11.070;2022-08-18T01:11:21;4.57;;;3.05;;
4517;SDS011;2271;49.464;11.070;2022-08-18T01:13:47;4.60;;;2.95;;
4517;SDS011;2271;49.464;11.070;2022-08-18T01:16:13;3.55;;;2.58;;
4517;SDS011;2271;49.464;11.070;2022-08-18T01:18:57;3.75;;;2.67;;
4517;SDS011;2271;49.464;11.070;2022-08-18T01:21:43;5.80;;;2.92;;
4517;SDS011;2271;49.464;11.070;2022-08-18T01:24:16;7.35;;;3.75;;
4517;SDS011;2271;49.464;11.070;2022-08-18T01:26:43;4.22;;;3.13;;
4517;SDS011;2271;49.464;11.070;2022-08-18T01:29:14;5.05;;;3.45;;
4517;SDS011;2271;49.464;11.070;2022-08-18T01:31:49;4.25;;;3.20;;
4517;SDS011;2271;49.464;11.070;2022-08-18T01:34:20;5.00;;;3.17;;
4517;SDS011;2271;49.464;11.070;2022-08-18T01:36:48;6.32;;;3.65;;
4517;SDS011;2271;49.464;11.070;2022-08-18T01:39:17;9.45;;;3.15;;
4517;SDS011;2271;49.464;11.070;2022-08-18T01:41:44;3.78;;;2.70;;
4517;SDS011;2271;49.464;11.070;2022-08-18T01:44:09;6.18;;;3.55;;
4517;SDS011;2271;49.464;11.070;2022-08-18T01:46:36;3.92;;;3.17;;
4517;SDS011;2271;49.464;11.070;2022-08-18T01:49:03;3.85;;;3.40;;
4517;SDS011;2271;49.464;11.070;2022-08-18T01:51:30;4.90;;;4.07;;
4517;SDS011;2271;49.464;11.070;2022-08-18T01:53:57;7.05;;;4.68;;
4517;SDS011;2271;49.464;11.070;2022-08-18T01:56:24;6.43;;;4.07;;
4517;SDS011;2271;49.464;11.070;2022-08-18T01:58:54;10.15;;;4.45;;
4517;SDS011;2271;49.464;11.070;2022-08-18T02:01:21;4.93;;;3.97;;
4517;SDS011;2271;49.464;11.070;2022-08-18T02:03:48;6.28;;;4.10;;
4517;SDS011;2271;49.464;11.070;2022-08-18T02:06:18;6.70;;;4.32;;
4517;SDS011;2271;49.464;11.070;2022-08-18T02:08:44;5.85;;;4.10;;
4517;SDS011;2271;49.464;11.070;2022-08-18T02:11:10;4.88;;;4.03;;
4517;SDS011;2271;49.464;11.070;2022-08-18T02:13:37;10.50;;;4.80;;
4517;SDS011;2271;49.464;11.070;2022-08-18T02:16:03;5.00;;;4.47;;
4517;SDS011;2271;49.464;11.070;2022-08-18T02:18:30;5.28;;;3.83;;
4517;SDS011;2271;49.464;11.070;2022-08-18T02:21:33;4.93;;;3.85;;
4517;SDS011;2271;49.464;11.070;2022-08-18T02:23:52;5.00;;;4.50;;
4517;SDS011;2271;49.464;11.070;2022-08-18T02:26:17;5.95;;;4.45;;
4517;SDS011;2271;49.464;11.070;2022-08-18T02:28:43;5.38;;;4.60;;
4517;SDS011;2271;49.464;11.070;2022-08-18T02:31:14;6.40;;;4.75;;
4517;SDS011;2271;49.464;11.070;2022-08-18T02:33:42;5.97;;;5.07;;
4517;SDS011;2271;49.464;11.070;2022-08-18T02:36:09;5.57;;;4.70;;
4517;SDS011;2271;49.464;11.070;2022-08-18T02:38:36;4.70;;;4.30;;
4517;SDS011;2271;49.464;11.070;2022-08-18T02:41:03;6.40;;;4.65;;
4517;SDS011;2271;49.464;11.070;2022-08-18T02:43:30;4.68;;;4.13;;
4517;SDS011;2271;49.464;11.070;2022-08-18T02:45:57;5.65;;;4.50;;
4517;SDS011;2271;49.464;11.070;2022-08-18T02:48:23;11.07;;;4.60;;
4517;SDS011;2271;49.464;11.070;2022-08-18T02:51:08;4.47;;;4.07;;
4517;SDS011;2271;49.464;11.070;2022-08-18T02:53:42;4.90;;;4.13;;
4517;SDS011;2271;49.464;11.070;2022-08-18T02:56:11;5.47;;;3.90;;
4517;SDS011;2271;49.464;11.070;2022-08-18T02:58:47;4.72;;;4.32;;
4517;SDS011;2271;49.464;11.070;2022-08-18T03:01:24;5.47;;;4.38;;
4517;SDS011;2271;49.464;11.070;2022-08-18T03:03:53;6.20;;;3.88;;
4517;SDS011;2271;49.464;11.070;2022-08-18T03:06:20;8.20;;;4.53;;
4517;SDS011;2271;49.464;11.070;2022-08-18T03:08:47;4.80;;;4.22;;
4517;SDS011;2271;49.464;11.070;2022-08-18T03:11:18;6.38;;;4.75;;
4517;SDS011;2271;49.464;11.070;2022-08-18T03:13:46;5.60;;;4.80;;
4517;SDS011;2271;49.464;11.070;2022-08-18T03:16:12;5.35;;;4.85;;
4517;SDS011;2271;49.464;11.070;2022-08-18T03:18:39;7.88;;;5.07;;
4517;SDS011;2271;49.464;11.070;2022-08-18T03:21:10;5.20;;;4.07;;
4517;SDS011;2271;49.464;11.070;2022-08-18T03:23:38;4.18;;;3.78;;
4517;SDS011;2271;49.464;11.070;2022-08-18T03:26:08;4.60;;;4.03;;
4517;SDS011;2271;49.464;11.070;2022-08-18T03:28:39;5.25;;;4.72;;
4517;SDS011;2271;49.464;11.070;2022-08-18T03:31:07;4.38;;;3.90;;
4517;SDS011;2271;49.464;11.070;2022-08-18T03:33:34;5.82;;;3.75;;
4517;SDS011;2271;49.464;11.070;2022-08-18T03:36:03;7.63;;;5.85;;
4517;SDS011;2271;49.464;11.070;2022-08-18T03:38:30;6.50;;;5.20;;
4517;SDS011;2271;49.464;11.070;2022-08-18T03:40:56;5.43;;;4.45;;
4517;SDS011;2271;49.464;11.070;2022-08-18T03:43:21;8.20;;;4.30;;
4517;SDS011;2271;49.464;11.070;2022-08-18T03:45:48;4.57;;;4.13;;
4517;SDS011;2271;49.464;11.070;2022-08-18T03:48:13;8.57;;;5.68;;
4517;SDS011;2271;49.464;11.070;2022-08-18T03:50:39;4.35;;;3.95;;
4517;SDS011;2271;49.464;11.070;2022-08-18T03:53:04;7.50;;;4.70;;
4517;SDS011;2271;49.464;11.070;2022-08-18T03:55:30;4.28;;;3.88;;
4517;SDS011;2271;49.464;11.070;2022-08-18T03:57:57;6.28;;;4.50;;
4517;SDS011;2271;49.464;11.070;2022-08-18T04:00:29;5.20;;;4.38;;
4517;SDS011;2271;49.464;11.070;2022-08-18T04:02:56;5.85;;;4.28;;
4517;SDS011;2271;49.464;11.070;2022-08-18T04:05:23;5.60;;;4.10;;
4517;SDS011;2271;49.464;11.070;2022-08-18T04:07:50;5.45;;;4.50;;
4517;SDS011;2271;49.464;11.070;2022-08-18T04:10:15;4.72;;;4.32;;
4517;SDS011;2271;49.464;11.070;2022-08-18T04:12:41;6.90;;;4.68;;
4517;SDS011;2271;49.464;11.070;2022-08-18T04:15:07;4.82;;;4.22;;
4517;SDS011;2271;49.464;11.070;2022-08-18T04:17:33;5.72;;;4.60;;
4517;SDS011;2271;49.464;11.070;2022-08-18T04:19:59;4.40;;;4.00;;
4517;SDS011;2271;49.464;11.070;2022-08-18T04:22:25;8.05;;;5.28;;
4517;SDS011;2271;49.464;11.070;2022-08-18T04:24:51;5.72;;;5.05;;
4517;SDS011;2271;49.464;11.070;2022-08-18T04:27:17;5.22;;;4.65;;
4517;SDS011;2271;49.464;11.070;2022-08-18T04:29:44;5.97;;;5.00;;
4517;SDS011;2271;49.464;11.070;2022-08-18T04:32:10;7.93;;;5.00;;
4517;SDS011;2271;49.464;11.070;2022-08-18T04:34:36;6.65;;;5.20;;
4517;SDS011;2271;49.464;11.070;2022-08-18T04:37:01;5.97;;;5.47;;
4517;SDS011;2271;49.464;11.070;2022-08-18T04:39:28;9.23;;;5.38;;
4517;SDS011;2271;49.464;11.070;2022-08-18T04:41:54;6.95;;;5.50;;
4517;SDS011;2271;49.464;11.070;2022-08-18T04:44:20;6.35;;;5.35;;
4517;SDS011;2271;49.464;11.070;2022-08-18T04:46:50;5.28;;;4.63;;
4517;SDS011;2271;49.464;11.070;2022-08-18T04:49:18;5.40;;;4.88;;
4517;SDS011;2271;49.464;11.070;2022-08-18T04:51:46;6.53;;;5.60;;
4517;SDS011;2271;49.464;11.070;2022-08-18T04:54:33;6.80;;;4.40;;
4517;SDS011;2271;49.464;11.070;2022-08-18T04:57:06;5.40;;;4.80;;
4517;SDS011;2271;49.464;11.070;2022-08-18T04:59:33;10.27;;;5.22;;
4517;SDS011;2271;49.464;11.070;2022-08-18T05:01:59;9.00;;;5.43;;
4517;SDS011;2271;49.464;11.070;2022-08-18T05:04:26;5.75;;;4.75;;
4517;SDS011;2271;49.464;11.070;2022-08-18T05:06:53;7.22;;;5.35;;
4517;SDS011;2271;49.464;11.070;2022-08-18T05:09:18;7.82;;;5.22;;
4517;SDS011;2271;49.464;11.070;2022-08-18T05:11:44;6.65;;;4.78;;
4517;SDS011;2271;49.464;11.070;2022-08-18T05:14:10;5.47;;;4.90;;
4517;SDS011;2271;49.464;11.070;2022-08-18T05:16:36;8.07;;;5.45;;
4517;SDS011;2271;49.464;11.070;2022-08-18T05:19:07;8.73;;;6.00;;
4517;SDS011;2271;49.464;11.070;2022-08-18T05:21:38;6.57;;;5.88;;
4517;SDS011;2271;49.464;11.070;2022-08-18T05:24:08;6.78;;;6.15;;
4517;SDS011;2271;49.464;11.070;2022-08-18T05:26:34;6.95;;;5.78;;
4517;SDS011;2271;49.464;11.070;2022-08-18T05:29:00;8.32;;;6.32;;
4517;SDS011;2271;49.464;11.070;2022-08-18T05:31:27;8.70;;;6.05;;
4517;SDS011;2271;49.464;11.070;2022-08-18T05:33:53;7.03;;;5.78;;
4517;SDS011;2271;49.464;11.070;2022-08-18T05:36:37;6.57;;;5.88;;
4517;SDS011;2271;49.464;11.070;2022-08-18T05:41:49;6.40;;;5.30;;
4517;SDS011;2271;49.464;11.070;2022-08-18T05:44:26;6.82;;;6.05;;
4517;SDS011;2271;49.464;11.070;2022-08-18T05:47:39;5.78;;;5.18;;
4517;SDS011;2271;49.464;11.070;2022-08-18T05:49:56;6.07;;;5.22;;
4517;SDS011;2271;49.464;11.070;2022-08-18T05:52:29;11.43;;;5.90;;
4517;SDS011;2271;49.464;11.070;2022-08-18T05:55:02;5.38;;;4.88;;
4517;SDS011;2271;49.464;11.070;2022-08-18T05:57:54;9.60;;;6.18;;
4517;SDS011;2271;49.464;11.070;2022-08-18T06:00:28;13.75;;;5.85;;
4517;SDS011;2271;49.464;11.070;2022-08-18T06:08:40;10.27;;;5.50;;
4517;SDS011;2271;49.464;11.070;2022-08-18T06:11:13;6.97;;;5.50;;
4517;SDS011;2271;49.464;11.070;2022-08-18T06:13:43;5.90;;;5.30;;
4517;SDS011;2271;49.464;11.070;2022-08-18T06:16:18;7.72;;;6.68;;
4517;SDS011;2271;49.464;11.070;2022-08-18T06:18:56;7.88;;;6.15;;
4517;SDS011;2271;49.464;11.070;2022-08-18T06:46:48;7.40;;;5.03;;
4517;SDS011;2271;49.464;11.070;2022-08-18T06:54:44;5.93;;;5.35;;
4517;SDS011;2271;49.464;11.070;2022-08-18T06:57:20;5.88;;;5.25;;
4517;SDS011;2271;49.464;11.070;2022-08-18T06:59:58;4.68;;;4.25;;
4517;SDS011;2271;49.464;11.070;2022-08-18T07:02:46;5.13;;;4.70;;
4517;SDS011;2271;49.464;11.070;2022-08-18T07:10:38;6.85;;;5.18;;
4517;SDS011;2271;49.464;11.070;2022-08-18T07:15:36;7.45;;;4.82;;
4517;SDS011;2271;49.464;11.070;2022-08-18T07:18:04;5.53;;;5.03;;
4517;SDS011;2271;49.464;11.070;2022-08-18T07:20:40;5.97;;;4.88;;
4517;SDS011;2271;49.464;11.070;2022-08-18T07:23:07;9.68;;;5.85;;
4517;SDS011;2271;49.464;11.070;2022-08-18T07:25:38;9.18;;;6.50;;
4517;SDS011;2271;49.464;11.070;2022-08-18T07:28:05;7.35;;;5.53;;
4517;SDS011;2271;49.464;11.070;2022-08-18T07:30:49;8.55;;;5.97;;
4517;SDS011;2271;49.464;11.070;2022-08-18T07:33:17;6.60;;;5.20;;
4517;SDS011;2271;49.464;11.070;2022-08-18T07:35:51;7.63;;;6.88;;
4517;SDS011;2271;49.464;11.070;2022-08-18T07:38:34;7.47;;;6.07;;
4517;SDS011;2271;49.464;11.070;2022-08-18T07:41:10;5.57;;;5.07;;
4517;SDS011;2271;49.464;11.070;2022-08-18T07:49:21;9.30;;;5.88;;
4517;SDS011;2271;49.464;11.070;2022-08-18T07:51:56;6.25;;;5.65;;
4517;SDS011;2271;49.464;11.070;2022-08-18T08:02:30;10.40;;;7.25;;
4517;SDS011;2271;49.464;11.070;2022-08-18T08:11:12;6.88;;;5.78;;
4517;SDS011;2271;49.464;11.070;2022-08-18T08:13:37;7.18;;;6.22;;
4517;SDS011;2271;49.464;11.070;2022-08-18T08:27:43;6.85;;;6.05;;
4517;SDS011;2271;49.464;11.070;2022-08-18T08:30:17;6.15;;;5.43;;
4517;SDS011;2271;49.464;11.070;2022-08-18T08:35:34;5.85;;;5.25;;
4517;SDS011;2271;49.464;11.070;2022-08-18T08:38:08;5.68;;;5.10;;
4517;SDS011;2271;49.464;11.070;2022-08-18T08:40:46;6.70;;;5.60;;
4517;SDS011;2271;49.464;11.070;2022-08-18T08:43:30;5.63;;;5.10;;
4517;SDS011;2271;49.464;11.070;2022-08-18T08:46:10;7.18;;;5.43;;
4517;SDS011;2271;49.464;11.070;2022-08-18T08:48:43;6.95;;;5.45;;
4517;SDS011;2271;49.464;11.070;2022-08-18T08:51:34;5.75;;;5.13;;
4517;SDS011;2271;49.464;11.070;2022-08-18T08:54:05;5.38;;;4.97;;
4517;SDS011;2271;49.464;11.070;2022-08-18T08:56:43;6.07;;;5.47;;
4517;SDS011;2271;49.464;11.070;2022-08-18T08:59:14;4.88;;;4.45;;
4517;SDS011;2271;49.464;11.070;2022-08-18T09:02:21;6.95;;;5.28;;
4517;SDS011;2271;49.464;11.070;2022-08-18T09:04:55;6.03;;;5.53;;
4517;SDS011;2271;49.464;11.070;2022-08-18T09:10:54;5.93;;;5.32;;
4517;SDS011;2271;49.464;11.070;2022-08-18T09:14:28;6.28;;;5.28;;
4517;SDS011;2271;49.464;11.070;2022-08-18T09:25:09;7.53;;;5.70;;
4517;SDS011;2271;49.464;11.070;2022-08-18T09:28:05;5.68;;;5.22;;
4517;SDS011;2271;49.464;11.070;2022-08-18T09:31:19;5.90;;;4.55;;
4517;SDS011;2271;49.464;11.070;2022-08-18T09:42:04;4.45;;;4.07;;
4517;SDS011;2271;49.464;11.070;2022-08-18T09:47:11;7.93;;;4.75;;
4517;SDS011;2271;49.464;11.070;2022-08-18T09:49:50;7.68;;;5.25;;
4517;SDS011;2271;49.464;11.070;2022-08-18T09:53:13;6.15;;;5.05;;
4517;SDS011;2271;49.464;11.070;2022-08-18T10:06:38;5.43;;;4.85;;
4517;SDS011;2271;49.464;11.070;2022-08-18T10:12:35;5.28;;;4.63;;
4517;SDS011;2271;49.464;11.070;2022-08-18T10:22:57;5.65;;;4.32;;
4517;SDS011;2271;49.464;11.070;2022-08-18T10:25:40;6.18;;;4.70;;
4517;SDS011;2271;49.464;11.070;2022-08-18T10:28:10;5.03;;;4.63;;
4517;SDS011;2271;49.464;11.070;2022-08-18T10:31:13;7.68;;;4.35;;
4517;SDS011;2271;49.464;11.070;2022-08-18T10:39:17;5.15;;;4.45;;
4517;SDS011;2271;49.464;11.070;2022-08-18T10:41:57;6.57;;;4.80;;
4517;SDS011;2271;49.464;11.070;2022-08-18T10:44:35;5.40;;;4.95;;
4517;SDS011;2271;49.464;11.070;2022-08-18T10:47:06;5.78;;;4.72;;
4517;SDS011;2271;49.464;11.070;2022-08-18T10:49:33;5.80;;;5.20;;
4517;SDS011;2271;49.464;11.070;2022-08-18T10:55:15;5.97;;;4.95;;
4517;SDS011;2271;49.464;11.070;2022-08-18T11:00:20;5.95;;;5.35;;
4517;SDS011;2271;49.464;11.070;2022-08-18T11:03:04;6.10;;;5.50;;
4517;SDS011;2271;49.464;11.070;2022-08-18T11:06:03;8.15;;;5.32;;
4517;SDS011;2271;49.464;11.070;2022-08-18T11:08:35;5.63;;;4.80;;
4517;SDS011;2271;49.464;11.070;2022-08-18T11:11:07;9.77;;;5.43;;
4517;SDS011;2271;49.464;11.070;2022-08-18T11:19:05;5.50;;;5.00;;
4517;SDS011;2271;49.464;11.070;2022-08-18T11:21:47;5.43;;;4.78;;
4517;SDS011;2271;49.464;11.070;2022-08-18T11:24:15;5.55;;;5.03;;
4517;SDS011;2271;49.464;11.070;2022-08-18T11:26:46;6.65;;;4.60;;
4517;SDS011;2271;49.464;11.070;2022-08-18T11:31:59;9.25;;;5.28;;
4517;SDS011;2271;49.464;11.070;2022-08-18T11:34:50;6.35;;;5.70;;
4517;SDS011;2271;49.464;11.070;2022-08-18T11:40:29;5.90;;;5.32;;
4517;SDS011;2271;49.464;11.070;2022-08-18T11:43:41;6.03;;;5.28;;
4517;SDS011;2271;49.464;11.070;2022-08-18T11:45:58;5.32;;;4.80;;
4517;SDS011;2271;49.464;11.070;2022-08-18T11:48:37;6.20;;;4.93;;
4517;SDS011;2271;49.464;11.070;2022-08-18T11:53:49;5.25;;;4.85;;
4517;SDS011;2271;49.464;11.070;2022-08-18T11:56:34;5.75;;;5.03;;
4517;SDS011;2271;49.464;11.070;2022-08-18T11:59:01;6.63;;;5.72;;
4517;SDS011;2271;49.464;11.070;2022-08-18T12:01:54;5.82;;;4.80;;
4517;SDS011;2271;49.464;11.070;2022-08-18T12:04:29;5.78;;;5.22;;
4517;SDS011;2271;49.464;11.070;2022-08-18T12:07:03;5.60;;;5.07;;
4517;SDS011;2271;49.464;11.070;2022-08-18T12:09:39;4.90;;;4.50;;
4517;SDS011;2271;49.464;11.070;2022-08-18T12:12:27;5.95;;;5.38;;
4517;SDS011;2271;49.464;11.070;2022-08-18T12:17:38;10.15;;;5.57;;
4517;SDS011;2271;49.464;11.070;2022-08-18T12:20:06;6.80;;;4.80;;
4517;SDS011;2271;49.464;11.070;2022-08-18T12:22:33;6.32;;;5.53;;
4517;SDS011;2271;49.464;11.070;2022-08-18T12:25:00;8.40;;;5.90;;
4517;SDS011;2271;49.464;11.070;2022-08-18T12:27:30;5.72;;;5.22;;
4517;SDS011;2271;49.464;11.070;2022-08-18T12:29:56;5.95;;;5.30;;
4517;SDS011;2271;49.464;11.070;2022-08-18T12:32:25;9.90;;;5.40;;
4517;SDS011;2271;49.464;11.070;2022-08-18T12:34:53;14.60;;;5.40;;
4517;SDS011;2271;49.464;11.070;2022-08-18T12:37:22;6.00;;;5.15;;
4517;SDS011;2271;49.464;11.070;2022-08-18T12:39:49;6.90;;;4.95;;
4517;SDS011;2271;49.464;11.070;2022-08-18T12:42:15;6.65;;;4.90;;
4517;SDS011;2271;49.464;11.070;2022-08-18T12:44:42;6.18;;;4.88;;
4517;SDS011;2271;49.464;11.070;2022-08-18T12:47:13;6.22;;;5.03;;
4517;SDS011;2271;49.464;11.070;2022-08-18T12:49:41;5.38;;;4.85;;
4517;SDS011;2271;49.464;11.070;2022-08-18T12:52:07;10.27;;;5.05;;
4517;SDS011;2271;49.464;11.070;2022-08-18T12:54:33;5.95;;;5.18;;
4517;SDS011;2271;49.464;11.070;2022-08-18T12:57:00;6.25;;;5.03;;
4517;SDS011;2271;49.464;11.070;2022-08-18T12:59:27;5.35;;;4.85;;
4517;SDS011;2271;49.464;11.070;2022-08-18T13:01:53;6.07;;;4.97;;
4517;SDS011;2271;49.464;11.070;2022-08-18T13:04:19;5.70;;;5.13;;
4517;SDS011;2271;49.464;11.070;2022-08-18T13:06:48;5.28;;;4.82;;
4517;SDS011;2271;49.464;11.070;2022-08-18T13:09:19;6.45;;;5.40;;
4517;SDS011;2271;49.464;11.070;2022-08-18T13:11:47;7.25;;;5.22;;
4517;SDS011;2271;49.464;11.070;2022-08-18T13:14:16;6.35;;;4.68;;
4517;SDS011;2271;49.464;11.070;2022-08-18T13:16:43;5.25;;;4.68;;
4517;SDS011;2271;49.464;11.070;2022-08-18T13:19:10;6.72;;;4.95;;
4517;SDS011;2271;49.464;11.070;2022-08-18T13:21:37;6.18;;;4.80;;
4517;SDS011;2271;49.464;11.070;2022-08-18T13:24:04;6.88;;;5.30;;
4517;SDS011;2271;49.464;11.070;2022-08-18T13:26:31;5.22;;;4.72;;
4517;SDS011;2271;49.464;11.070;2022-08-18T13:29:00;6.78;;;5.15;;
4517;SDS011;2271;49.464;11.070;2022-08-18T13:31:26;5.57;;;4.93;;
4517;SDS011;2271;49.464;11.070;2022-08-18T13:33:53;6.03;;;4.80;;
4517;SDS011;2271;49.464;11.070;2022-08-18T13:36:22;5.22;;;4.72;;
4517;SDS011;2271;49.464;11.070;2022-08-18T13:38:50;10.05;;;5.18;;
4517;SDS011;2271;49.464;11.070;2022-08-18T13:41:18;6.47;;;4.88;;
4517;SDS011;2271;49.464;11.070;2022-08-18T13:43:45;5.07;;;4.68;;
4517;SDS011;2271;49.464;11.070;2022-08-18T13:46:12;7.00;;;4.78;;
4517;SDS011;2271;49.464;11.070;2022-08-18T13:48:41;6.90;;;4.80;;
4517;SDS011;2271;49.464;11.070;2022-08-18T13:51:08;7.50;;;4.65;;
4517;SDS011;2271;49.464;11.070;2022-08-18T13:53:36;5.47;;;4.97;;
4517;SDS011;2271;49.464;11.070;2022-08-18T13:56:03;5.38;;;4.88;;
4517;SDS011;2271;49.464;11.070;2022-08-18T13:58:30;5.57;;;5.07;;
4517;SDS011;2271;49.464;11.070;2022-08-18T14:00:57;5.00;;;4.50;;
4517;SDS011;2271;49.464;11.070;2022-08-18T14:03:24;6.13;;;4.97;;
4517;SDS011;2271;49.464;11.070;2022-08-18T14:05:50;5.18;;;4.68;;
4517;SDS011;2271;49.464;11.070;2022-08-18T14:08:17;5.72;;;4.97;;
4517;SDS011;2271;49.464;11.070;2022-08-18T14:10:51;4.68;;;4.28;;
4517;SDS011;2271;49.464;11.070;2022-08-18T14:13:18;10.82;;;4.97;;
4517;SDS011;2271;49.464;11.070;2022-08-18T14:15:45;5.53;;;5.03;;
4517;SDS011;2271;49.464;11.070;2022-08-18T14:18:11;4.80;;;4.28;;
4517;SDS011;2271;49.464;11.070;2022-08-18T14:20:38;5.93;;;4.70;;
4517;SDS011;2271;49.464;11.070;2022-08-18T14:23:23;5.70;;;4.90;;
4517;SDS011;2271;49.464;11.070;2022-08-18T14:26:09;5.72;;;5.03;;
4517;SDS011;2271;49.464;11.070;2022-08-18T14:28:53;6.13;;;5.05;;
4517;SDS011;2271;49.464;11.070;2022-08-18T14:31:19;7.95;;;5.05;;
4517;SDS011;2271;49.464;11.070;2022-08-18T14:33:45;6.70;;;4.60;;
4517;SDS011;2271;49.464;11.070;2022-08-18T14:36:11;8.32;;;4.10;;
4517;SDS011;2271;49.464;11.070;2022-08-18T14:38:37;5.68;;;4.50;;
4517;SDS011;2271;49.464;11.070;2022-08-18T14:41:05;11.40;;;5.18;;
4517;SDS011;2271;49.464;11.070;2022-08-18T14:43:32;5.45;;;4.95;;
4517;SDS011;2271;49.464;11.070;2022-08-18T14:46:01;5.25;;;4.53;;
4517;SDS011;2271;49.464;11.070;2022-08-18T14:48:28;5.15;;;4.65;;
4517;SDS011;2271;49.464;11.070;2022-08-18T14:50:55;5.65;;;5.15;;
4517;SDS011;2271;49.464;11.070;2022-08-18T14:53:23;5.28;;;4.82;;
4517;SDS011;2271;49.464;11.070;2022-08-18T14:55:51;8.07;;;4.75;;
4517;SDS011;2271;49.464;11.070;2022-08-18T14:58:19;6.97;;;4.80;;
4517;SDS011;2271;49.464;11.070;2022-08-18T15:00:47;6.68;;;4.90;;
4517;SDS011;2271;49.464;11.070;2022-08-18T15:03:12;4.38;;;4.00;;
4517;SDS011;2271;49.464;11.070;2022-08-18T15:05:38;6.45;;;5.00;;
4517;SDS011;2271;49.464;11.070;2022-08-18T15:08:04;5.28;;;4.72;;
4517;SDS011;2271;49.464;11.070;2022-08-18T15:10:30;9.20;;;4.50;;
4517;SDS011;2271;49.464;11.070;2022-08-18T15:12:56;4.88;;;4.47;;
4517;SDS011;2271;49.464;11.070;2022-08-18T15:15:24;6.57;;;4.55;;
4517;SDS011;2271;49.464;11.070;2022-08-18T15:17:51;5.30;;;4.78;;
4517;SDS011;2271;49.464;11.070;2022-08-18T15:20:16;5.60;;;4.35;;
4517;SDS011;2271;49.464;11.070;2022-08-18T15:22:43;7.40;;;4.68;;
4517;SDS011;2271;49.464;11.070;2022-08-18T15:25:28;7.38;;;5.28;;
4517;SDS011;2271;49.464;11.070;2022-08-18T15:28:09;7.00;;;5.15;;
4517;SDS011;2271;49.464;11.070;2022-08-18T15:30:46;5.45;;;4.68;;
4517;SDS011;2271;49.464;11.070;2022-08-18T15:33:14;5.18;;;4.68;;
4517;SDS011;2271;49.464;11.070;2022-08-18T15:35:41;7.40;;;5.30;;
4517;SDS011;2271;49.464;11.070;2022-08-18T15:38:11;7.65;;;4.60;;
4517;SDS011;2271;49.464;11.070;2022-08-18T15:40:37;5.47;;;4.53;;
4517;SDS011;2271;49.464;11.070;2022-08-18T15:43:12;5.75;;;5.25;;
4517;SDS011;2271;49.464;11.070;2022-08-18T15:45:40;9.00;;;4.95;;
4517;SDS011;2271;49.464;11.070;2022-08-18T15:48:09;7.25;;;4.38;;
4517;SDS011;2271;49.464;11.070;2022-08-18T15:50:35;6.20;;;5.68;;
4517;SDS011;2271;49.464;11.070;2022-08-18T15:53:02;6.25;;;4.85;;
4517;SDS011;2271;49.464;11.070;2022-08-18T15:55:30;5.38;;;4.97;;
4517;SDS011;2271;49.464;11.070;2022-08-18T15:57:57;5.63;;;4.97;;
4517;SDS011;2271;49.464;11.070;2022-08-18T16:00:26;7.50;;;5.22;;
4517;SDS011;2271;49.464;11.070;2022-08-18T16:03:01;6.15;;;4.97;;
4517;SDS011;2271;49.464;11.070;2022-08-18T16:05:30;6.18;;;5.25;;
4517;SDS011;2271;49.464;11.070;2022-08-18T16:07:59;5.32;;;4.65;;
4517;SDS011;2271;49.464;11.070;2022-08-18T16:10:26;7.05;;;4.97;;
4517;SDS011;2271;49.464;11.070;2022-08-18T16:12:53;6.10;;;5.15;;
4517;SDS011;2271;49.464;11.070;2022-08-18T16:15:21;6.28;;;5.53;;
4517;SDS011;2271;49.464;11.070;2022-08-18T16:17:49;5.63;;;5.13;;
4517;SDS011;2271;49.464;11.070;2022-08-18T16:20:18;7.00;;;5.40;;
4517;SDS011;2271;49.464;11.070;2022-08-18T16:22:45;5.05;;;4.60;;
4517;SDS011;2271;49.464;11.070;2022-08-18T16:25:11;6.40;;;5.70;;
4517;SDS011;2271;49.464;11.070;2022-08-18T16:27:40;5.88;;;5.38;;
4517;SDS011;2271;49.464;11.070;2022-08-18T16:30:08;7.15;;;6.03;;
4517;SDS011;2271;49.464;11.070;2022-08-18T16:32:36;5.82;;;5.30;;
4517;SDS011;2271;49.464;11.070;2022-08-18T16:35:02;7.57;;;5.70;;
4517;SDS011;2271;49.464;11.070;2022-08-18T16:37:29;8.35;;;5.50;;
4517;SDS011;2271;49.464;11.070;2022-08-18T16:39:54;6.95;;;5.70;;
4517;SDS011;2271;49.464;11.070;2022-08-18T16:42:20;6.88;;;5.10;;
4517;SDS011;2271;49.464;11.070;2022-08-18T16:44:46;5.45;;;4.90;;
4517;SDS011;2271;49.464;11.070;2022-08-18T16:47:12;5.43;;;4.90;;
4517;SDS011;2271;49.464;11.070;2022-08-18T16:49:41;7.90;;;5.70;;
4517;SDS011;2271;49.464;11.070;2022-08-18T16:52:09;5.93;;;5.28;;
4517;SDS011;2271;49.464;11.070;2022-08-18T16:54:34;5.78;;;5.18;;
4517;SDS011;2271;49.464;11.070;2022-08-18T16:57:00;6.15;;;5.47;;
4517;SDS011;2271;49.464;11.070;2022-08-18T16:59:26;6.53;;;5.30;;
4517;SDS011;2271;49.464;11.070;2022-08-18T17:02:10;6.90;;;5.60;;
4517;SDS011;2271;49.464;11.070;2022-08-18T17:04:54;6.45;;;5.75;;
4517;SDS011;2271;49.464;11.070;2022-08-18T17:07:26;5.82;;;5.20;;
4517;SDS011;2271;49.464;11.070;2022-08-18T17:09:56;5.63;;;5.13;;
4517;SDS011;2271;49.464;11.070;2022-08-18T17:12:22;6.80;;;6.00;;
4517;SDS011;2271;49.464;11.070;2022-08-18T17:14:49;5.15;;;4.55;;
4517;SDS011;2271;49.464;11.070;2022-08-18T17:17:15;7.03;;;5.90;;
4517;SDS011;2271;49.464;11.070;2022-08-18T17:19:42;6.88;;;5.57;;
4517;SDS011;2271;49.464;11.070;2022-08-18T17:22:08;5.93;;;5.32;;
4517;SDS011;2271;49.464;11.070;2022-08-18T17:24:34;5.90;;;5.40;;
4517;SDS011;2271;49.464;11.070;2022-08-18T17:27:09;7.38;;;5.45;;
4517;SDS011;2271;49.464;11.070;2022-08-18T17:32:22;5.68;;;5.13;;
4517;SDS011;2271;49.464;11.070;2022-08-18T17:35:03;5.20;;;4.70;;
4517;SDS011;2271;49.464;11.070;2022-08-18T17:37:30;5.75;;;4.97;;
4517;SDS011;2271;49.464;11.070;2022-08-18T17:40:09;6.57;;;5.30;;
4517;SDS011;2271;49.464;11.070;2022-08-18T17:42:40;6.45;;;5.88;;
4517;SDS011;2271;49.464;11.070;2022-08-18T17:45:08;10.95;;;5.07;;
4517;SDS011;2271;49.464;11.070;2022-08-18T17:48:26;9.25;;;5.05;;
4517;SDS011;2271;49.464;11.070;2022-08-18T17:50:25;6.32;;;5.82;;
4517;SDS011;2271;49.464;11.070;2022-08-18T17:53:19;7.90;;;5.32;;
4517;SDS011;2271;49.464;11.070;2022-08-18T17:55:48;6.13;;;5.53;;
4517;SDS011;2271;49.464;11.070;2022-08-18T18:01:12;6.05;;;5.45;;
4517;SDS011;2271;49.464;11.070;2022-08-18T18:03:39;6.78;;;4.85;;